sensor_id;sensor_type;location;lat;lon;timestamp;temperature;humidity
25108;DHT22;13090;53.422;7.670;2023-05-10T00:12:50;17.20;91.10
25108;DHT22;13090;53.422;7.670;2023-05-10T00:17:55;17.10;90.60
25108;DHT22;13090;53.422;7.670;2023-05-10T00:22:58;17.10;90.50
25108;DHT22;13090;53.422;7.670;2023-05-10T00:28:23;17.10;90.50
25108;DHT22;13090;53.422;7.670;2023-05-10T00:38:36;17.20;90.40
25108;DHT22;13090;53.422;7.670;2023-05-10T00:43:40;17.30;90.30
25108;DHT22;13090;53.422;7.670;2023-05-10T00:48:43;17.20;90.30
25108;DHT22;13090;53.422;7.670;2023-05-10T00:53:46;17.20;90.30
25108;DHT22;13090;53.422;7.670;2023-05-10T00:58:50;17.20;90.30
25108;DHT22;13090;53.422;7.670;2023-05-10T01:03:53;17.20;90.30
25108;DHT22;13090;53.422;7.670;2023-05-10T01:08:56;17.30;90.30
25108;DHT22;13090;53.422;7.670;2023-05-10T01:14:00;17.30;90.30
25108;DHT22;13090;53.422;7.670;2023-05-10T01:19:04;17.30;90.30
25108;DHT22;13090;53.422;7.670;2023-05-10T01:25:01;17.30;90.30
25108;DHT22;13090;53.422;7.670;2023-05-10T01:30:30;17.30;90.80
25108;DHT22;13090;53.422;7.670;2023-05-10T01:35:41;17.40;90.70
25108;DHT22;13090;53.422;7.670;2023-05-10T01:40:54;17.40;90.30
25108;DHT22;13090;53.422;7.670;2023-05-10T01:46:03;17.40;90.30
25108;DHT22;13090;53.422;7.670;2023-05-10T01:51:09;17.30;90.10
25108;DHT22;13090;53.422;7.670;2023-05-10T01:56:13;17.30;90.10
25108;DHT22;13090;53.422;7.670;2023-05-10T02:01:16;17.30;90.00
25108;DHT22;13090;53.422;7.670;2023-05-10T02:06:22;17.30;90.10
25108;DHT22;13090;53.422;7.670;2023-05-10T02:11:27;17.20;90.20
25108;DHT22;13090;53.422;7.670;2023-05-10T02:16:31;17.20;90.10
25108;DHT22;13090;53.422;7.670;2023-05-10T02:21:35;17.20;90.10
25108;DHT22;13090;53.422;7.670;2023-05-10T02:26:38;17.10;90.00
25108;DHT22;13090;53.422;7.670;2023-05-10T02:31:41;17.10;90.00
25108;DHT22;13090;53.422;7.670;2023-05-10T02:36:46;17.10;90.00
25108;DHT22;13090;53.422;7.670;2023-05-10T02:41:50;17.00;90.10
25108;DHT22;13090;53.422;7.670;2023-05-10T02:46:54;17.00;90.00
25108;DHT22;13090;53.422;7.670;2023-05-10T02:52:01;17.00;90.10
25108;DHT22;13090;53.422;7.670;2023-05-10T02:57:07;17.00;90.20
25108;DHT22;13090;53.422;7.670;2023-05-10T03:02:12;17.00;90.10
25108;DHT22;13090;53.422;7.670;2023-05-10T03:07:16;17.00;90.10
25108;DHT22;13090;53.422;7.670;2023-05-10T03:12:27;16.90;90.10
25108;DHT22;13090;53.422;7.670;2023-05-10T03:17:39;16.90;90.10
25108;DHT22;13090;53.422;7.670;2023-05-10T03:22:47;16.90;90.00
25108;DHT22;13090;53.422;7.670;2023-05-10T03:27:50;16.90;89.60
25108;DHT22;13090;53.422;7.670;2023-05-10T03:32:52;16.80;89.30
25108;DHT22;13090;53.422;7.670;2023-05-10T03:37:56;16.70;89.30
25108;DHT22;13090;53.422;7.670;2023-05-10T03:42:58;16.60;89.40
25108;DHT22;13090;53.422;7.670;2023-05-10T03:48:00;16.50;89.50
25108;DHT22;13090;53.422;7.670;2023-05-10T03:53:04;16.40;89.40
25108;DHT22;13090;53.422;7.670;2023-05-10T03:58:06;16.40;89.50
25108;DHT22;13090;53.422;7.670;2023-05-10T04:03:08;16.40;89.60
25108;DHT22;13090;53.422;7.670;2023-05-10T04:08:12;16.30;89.70
25108;DHT22;13090;53.422;7.670;2023-05-10T04:13:14;16.30;89.90
25108;DHT22;13090;53.422;7.670;2023-05-10T04:18:17;16.30;89.90
25108;DHT22;13090;53.422;7.670;2023-05-10T04:23:20;16.30;90.00
25108;DHT22;13090;53.422;7.670;2023-05-10T04:28:23;16.30;90.00
25108;DHT22;13090;53.422;7.670;2023-05-10T04:33:25;16.30;90.00
25108;DHT22;13090;53.422;7.670;2023-05-10T04:38:29;16.30;90.00
25108;DHT22;13090;53.422;7.670;2023-05-10T04:43:31;16.30;90.00
25108;DHT22;13090;53.422;7.670;2023-05-10T04:48:33;16.30;90.00
25108;DHT22;13090;53.422;7.670;2023-05-10T04:53:37;16.30;90.00
25108;DHT22;13090;53.422;7.670;2023-05-10T04:58:40;16.30;90.00
25108;DHT22;13090;53.422;7.670;2023-05-10T05:03:42;16.40;90.00
25108;DHT22;13090;53.422;7.670;2023-05-10T05:08:46;16.40;90.10
25108;DHT22;13090;53.422;7.670;2023-05-10T05:13:48;16.40;90.00
25108;DHT22;13090;53.422;7.670;2023-05-10T05:18:50;16.40;90.00
25108;DHT22;13090;53.422;7.670;2023-05-10T05:23:54;16.50;90.10
25108;DHT22;13090;53.422;7.670;2023-05-10T05:28:56;16.50;90.50
25108;DHT22;13090;53.422;7.670;2023-05-10T05:33:59;16.60;90.10
25108;DHT22;13090;53.422;7.670;2023-05-10T05:39:03;16.60;90.10
25108;DHT22;13090;53.422;7.670;2023-05-10T05:44:05;16.60;90.10
25108;DHT22;13090;53.422;7.670;2023-05-10T05:49:07;16.70;90.00
25108;DHT22;13090;53.422;7.670;2023-05-10T05:54:11;16.70;90.30
25108;DHT22;13090;53.422;7.670;2023-05-10T05:59:13;16.70;89.90
25108;DHT22;13090;53.422;7.670;2023-05-10T06:04:16;16.60;89.50
25108;DHT22;13090;53.422;7.670;2023-05-10T06:09:19;16.60;89.70
25108;DHT22;13090;53.422;7.670;2023-05-10T06:14:22;16.60;89.90
25108;DHT22;13090;53.422;7.670;2023-05-10T06:19:24;16.60;90.00
25108;DHT22;13090;53.422;7.670;2023-05-10T06:24:28;16.60;90.40
25108;DHT22;13090;53.422;7.670;2023-05-10T06:29:30;16.60;90.00
25108;DHT22;13090;53.422;7.670;2023-05-10T06:34:32;16.70;89.90
25108;DHT22;13090;53.422;7.670;2023-05-10T06:39:36;16.60;89.70
25108;DHT22;13090;53.422;7.670;2023-05-10T06:44:38;16.70;90.00
25108;DHT22;13090;53.422;7.670;2023-05-10T06:49:41;16.60;89.80
25108;DHT22;13090;53.422;7.670;2023-05-10T06:54:44;16.60;89.90
25108;DHT22;13090;53.422;7.670;2023-05-10T06:59:46;16.60;89.90
25108;DHT22;13090;53.422;7.670;2023-05-10T07:04:49;16.70;90.30
25108;DHT22;13090;53.422;7.670;2023-05-10T07:09:52;16.70;89.80
25108;DHT22;13090;53.422;7.670;2023-05-10T07:14:55;16.70;89.90
25108;DHT22;13090;53.422;7.670;2023-05-10T07:19:57;16.70;89.80
25108;DHT22;13090;53.422;7.670;2023-05-10T07:25:01;16.70;89.80
25108;DHT22;13090;53.422;7.670;2023-05-10T07:30:04;16.70;89.60
25108;DHT22;13090;53.422;7.670;2023-05-10T07:35:07;16.70;89.60
25108;DHT22;13090;53.422;7.670;2023-05-10T07:40:12;16.60;90.00
25108;DHT22;13090;53.422;7.670;2023-05-10T07:45:14;16.70;90.10
25108;DHT22;13090;53.422;7.670;2023-05-10T07:50:17;16.80;90.20
25108;DHT22;13090;53.422;7.670;2023-05-10T07:55:20;16.80;90.00
25108;DHT22;13090;53.422;7.670;2023-05-10T08:00:23;16.80;90.00
25108;DHT22;13090;53.422;7.670;2023-05-10T08:05:25;16.90;90.10
25108;DHT22;13090;53.422;7.670;2023-05-10T08:10:29;17.00;90.30
25108;DHT22;13090;53.422;7.670;2023-05-10T08:15:31;17.10;90.30
25108;DHT22;13090;53.422;7.670;2023-05-10T08:20:33;17.30;90.20
25108;DHT22;13090;53.422;7.670;2023-05-10T08:25:37;17.40;90.10
25108;DHT22;13090;53.422;7.670;2023-05-10T08:30:39;17.50;90.00
25108;DHT22;13090;53.422;7.670;2023-05-10T08:35:42;17.50;89.90
25108;DHT22;13090;53.422;7.670;2023-05-10T08:40:45;17.60;89.80
25108;DHT22;13090;53.422;7.670;2023-05-10T08:45:51;17.70;89.70
25108;DHT22;13090;53.422;7.670;2023-05-10T08:50:56;17.80;90.00
25108;DHT22;13090;53.422;7.670;2023-05-10T08:56:02;18.00;90.10
25108;DHT22;13090;53.422;7.670;2023-05-10T09:01:05;18.20;90.00
25108;DHT22;13090;53.422;7.670;2023-05-10T09:06:07;18.30;89.70
25108;DHT22;13090;53.422;7.670;2023-05-10T09:11:12;18.50;89.40
25108;DHT22;13090;53.422;7.670;2023-05-10T09:16:14;18.50;88.80
25108;DHT22;13090;53.422;7.670;2023-05-10T09:21:23;18.60;88.70
25108;DHT22;13090;53.422;7.670;2023-05-10T09:26:26;18.60;88.60
25108;DHT22;13090;53.422;7.670;2023-05-10T09:31:44;18.70;88.50
25108;DHT22;13090;53.422;7.670;2023-05-10T09:36:55;18.70;87.80
25108;DHT22;13090;53.422;7.670;2023-05-10T09:42:00;18.70;87.80
25108;DHT22;13090;53.422;7.670;2023-05-10T09:47:03;18.60;87.80
25108;DHT22;13090;53.422;7.670;2023-05-10T09:52:07;18.60;88.10
25108;DHT22;13090;53.422;7.670;2023-05-10T09:57:20;18.70;88.40
25108;DHT22;13090;53.422;7.670;2023-05-10T10:02:28;18.70;88.30
25108;DHT22;13090;53.422;7.670;2023-05-10T10:07:31;18.80;87.90
25108;DHT22;13090;53.422;7.670;2023-05-10T10:12:35;18.80;87.50
25108;DHT22;13090;53.422;7.670;2023-05-10T10:17:37;18.70;87.30
25108;DHT22;13090;53.422;7.670;2023-05-10T10:22:40;18.60;87.30
25108;DHT22;13090;53.422;7.670;2023-05-10T10:27:49;18.50;87.30
25108;DHT22;13090;53.422;7.670;2023-05-10T10:33:23;18.30;87.20
25108;DHT22;13090;53.422;7.670;2023-05-10T10:38:37;18.20;87.30
25108;DHT22;13090;53.422;7.670;2023-05-10T10:43:41;18.00;87.50
25108;DHT22;13090;53.422;7.670;2023-05-10T10:48:48;17.90;87.60
25108;DHT22;13090;53.422;7.670;2023-05-10T10:53:50;17.90;87.90
25108;DHT22;13090;53.422;7.670;2023-05-10T10:58:59;17.90;88.20
25108;DHT22;13090;53.422;7.670;2023-05-10T11:04:17;17.90;88.30
25108;DHT22;13090;53.422;7.670;2023-05-10T11:09:24;17.80;88.10
25108;DHT22;13090;53.422;7.670;2023-05-10T11:14:31;17.70;87.90
25108;DHT22;13090;53.422;7.670;2023-05-10T11:19:34;17.70;88.10
25108;DHT22;13090;53.422;7.670;2023-05-10T11:24:36;17.60;88.10
25108;DHT22;13090;53.422;7.670;2023-05-10T11:29:40;17.60;88.50
25108;DHT22;13090;53.422;7.670;2023-05-10T11:34:42;17.60;88.70
25108;DHT22;13090;53.422;7.670;2023-05-10T11:39:49;17.70;88.90
25108;DHT22;13090;53.422;7.670;2023-05-10T11:44:52;17.70;88.80
25108;DHT22;13090;53.422;7.670;2023-05-10T11:49:55;17.80;88.80
25108;DHT22;13090;53.422;7.670;2023-05-10T11:54:57;17.80;88.70
25108;DHT22;13090;53.422;7.670;2023-05-10T12:00:01;17.90;88.60
25108;DHT22;13090;53.422;7.670;2023-05-10T12:05:04;17.90;89.00
25108;DHT22;13090;53.422;7.670;2023-05-10T12:10:09;18.10;89.20
25108;DHT22;13090;53.422;7.670;2023-05-10T12:15:18;18.20;89.40
25108;DHT22;13090;53.422;7.670;2023-05-10T12:20:22;18.50;89.60
25108;DHT22;13090;53.422;7.670;2023-05-10T12:25:30;18.70;89.20
25108;DHT22;13090;53.422;7.670;2023-05-10T12:30:35;19.00;89.00
25108;DHT22;13090;53.422;7.670;2023-05-10T12:35:45;19.30;89.40
25108;DHT22;13090;53.422;7.670;2023-05-10T12:40:48;19.70;89.30
25108;DHT22;13090;53.422;7.670;2023-05-10T12:45:52;20.10;87.90
25108;DHT22;13090;53.422;7.670;2023-05-10T12:50:54;20.30;87.30
25108;DHT22;13090;53.422;7.670;2023-05-10T12:55:56;20.30;85.90
25108;DHT22;13090;53.422;7.670;2023-05-10T13:01:00;20.30;85.90
25108;DHT22;13090;53.422;7.670;2023-05-10T13:06:03;20.40;85.80
25108;DHT22;13090;53.422;7.670;2023-05-10T13:11:06;20.50;85.80
25108;DHT22;13090;53.422;7.670;2023-05-10T13:16:09;20.60;85.60
25108;DHT22;13090;53.422;7.670;2023-05-10T13:21:11;20.70;84.60
25108;DHT22;13090;53.422;7.670;2023-05-10T13:26:14;20.80;84.30
25108;DHT22;13090;53.422;7.670;2023-05-10T13:31:17;20.90;84.20
25108;DHT22;13090;53.422;7.670;2023-05-10T13:36:20;20.80;83.30
25108;DHT22;13090;53.422;7.670;2023-05-10T13:41:22;20.70;82.70
25108;DHT22;13090;53.422;7.670;2023-05-10T13:46:26;20.70;83.00
25108;DHT22;13090;53.422;7.670;2023-05-10T13:51:28;20.60;82.60
25108;DHT22;13090;53.422;7.670;2023-05-10T13:56:30;20.60;82.40
25108;DHT22;13090;53.422;7.670;2023-05-10T14:01:35;20.50;82.00
25108;DHT22;13090;53.422;7.670;2023-05-10T14:06:37;20.30;82.40
25108;DHT22;13090;53.422;7.670;2023-05-10T14:11:39;20.30;82.70
25108;DHT22;13090;53.422;7.670;2023-05-10T14:16:44;20.20;82.60
25108;DHT22;13090;53.422;7.670;2023-05-10T14:21:47;20.20;82.30
25108;DHT22;13090;53.422;7.670;2023-05-10T14:26:49;20.10;82.20
25108;DHT22;13090;53.422;7.670;2023-05-10T14:31:52;20.10;82.20
25108;DHT22;13090;53.422;7.670;2023-05-10T14:36:55;20.10;82.90
25108;DHT22;13090;53.422;7.670;2023-05-10T14:41:57;20.30;83.40
25108;DHT22;13090;53.422;7.670;2023-05-10T14:47:01;20.50;83.30
25108;DHT22;13090;53.422;7.670;2023-05-10T14:52:03;20.80;82.40
25108;DHT22;13090;53.422;7.670;2023-05-10T14:57:06;21.00;82.00
25108;DHT22;13090;53.422;7.670;2023-05-10T15:02:09;21.10;81.40
25108;DHT22;13090;53.422;7.670;2023-05-10T15:07:12;21.20;80.80
25108;DHT22;13090;53.422;7.670;2023-05-10T15:12:15;21.20;80.30
25108;DHT22;13090;53.422;7.670;2023-05-10T15:17:18;21.20;80.20
25108;DHT22;13090;53.422;7.670;2023-05-10T15:22:21;21.20;80.10
25108;DHT22;13090;53.422;7.670;2023-05-10T15:27:23;21.30;79.90
25108;DHT22;13090;53.422;7.670;2023-05-10T15:32:27;21.20;79.40
25108;DHT22;13090;53.422;7.670;2023-05-10T15:37:29;21.20;79.20
25108;DHT22;13090;53.422;7.670;2023-05-10T15:42:31;21.20;79.60
25108;DHT22;13090;53.422;7.670;2023-05-10T15:47:35;21.20;79.30
25108;DHT22;13090;53.422;7.670;2023-05-10T15:52:37;21.20;79.20
25108;DHT22;13090;53.422;7.670;2023-05-10T15:57:41;21.20;79.40
25108;DHT22;13090;53.422;7.670;2023-05-10T16:02:45;21.30;79.10
25108;DHT22;13090;53.422;7.670;2023-05-10T16:07:47;21.40;78.30
25108;DHT22;13090;53.422;7.670;2023-05-10T16:12:49;21.40;78.10
25108;DHT22;13090;53.422;7.670;2023-05-10T16:17:53;21.40;77.80
25108;DHT22;13090;53.422;7.670;2023-05-10T16:22:56;21.40;77.40
25108;DHT22;13090;53.422;7.670;2023-05-10T16:27:59;21.30;77.40
25108;DHT22;13090;53.422;7.670;2023-05-10T16:33:03;21.20;77.20
25108;DHT22;13090;53.422;7.670;2023-05-10T16:38:05;21.00;76.90
25108;DHT22;13090;53.422;7.670;2023-05-10T16:43:08;20.90;77.30
25108;DHT22;13090;53.422;7.670;2023-05-10T16:48:11;20.70;77.40
25108;DHT22;13090;53.422;7.670;2023-05-10T16:53:13;20.60;77.50
25108;DHT22;13090;53.422;7.670;2023-05-10T16:58:16;20.60;78.50
25108;DHT22;13090;53.422;7.670;2023-05-10T17:03:19;20.60;77.50
25108;DHT22;13090;53.422;7.670;2023-05-10T17:08:22;20.50;77.40
25108;DHT22;13090;53.422;7.670;2023-05-10T17:13:24;20.40;77.50
25108;DHT22;13090;53.422;7.670;2023-05-10T17:18:27;20.30;77.60
25108;DHT22;13090;53.422;7.670;2023-05-10T17:23:30;20.20;78.00
25108;DHT22;13090;53.422;7.670;2023-05-10T17:28:32;20.10;78.40
25108;DHT22;13090;53.422;7.670;2023-05-10T17:33:36;20.10;78.30
25108;DHT22;13090;53.422;7.670;2023-05-10T17:38:38;20.00;78.00
25108;DHT22;13090;53.422;7.670;2023-05-10T17:43:40;19.90;77.70
25108;DHT22;13090;53.422;7.670;2023-05-10T17:48:44;19.80;77.50
25108;DHT22;13090;53.422;7.670;2023-05-10T17:53:46;19.60;77.70
25108;DHT22;13090;53.422;7.670;2023-05-10T17:58:48;19.40;78.10
25108;DHT22;13090;53.422;7.670;2023-05-10T18:03:52;19.40;78.50
25108;DHT22;13090;53.422;7.670;2023-05-10T18:08:54;19.20;78.50
25108;DHT22;13090;53.422;7.670;2023-05-10T18:13:57;19.10;78.70
25108;DHT22;13090;53.422;7.670;2023-05-10T18:19:01;19.00;78.80
25108;DHT22;13090;53.422;7.670;2023-05-10T18:24:04;18.90;78.90
25108;DHT22;13090;53.422;7.670;2023-05-10T18:29:06;18.80;79.10
25108;DHT22;13090;53.422;7.670;2023-05-10T18:34:10;18.70;79.30
25108;DHT22;13090;53.422;7.670;2023-05-10T18:39:12;18.60;79.40
25108;DHT22;13090;53.422;7.670;2023-05-10T18:44:15;18.40;79.30
25108;DHT22;13090;53.422;7.670;2023-05-10T18:49:18;18.30;79.40
25108;DHT22;13090;53.422;7.670;2023-05-10T18:54:21;18.20;79.50
25108;DHT22;13090;53.422;7.670;2023-05-10T18:59:23;18.00;79.70
25108;DHT22;13090;53.422;7.670;2023-05-10T19:04:27;17.90;79.80
25108;DHT22;13090;53.422;7.670;2023-05-10T19:09:29;17.80;80.00
25108;DHT22;13090;53.422;7.670;2023-05-10T19:14:31;17.70;80.10
25108;DHT22;13090;53.422;7.670;2023-05-10T19:19:35;17.60;80.10
25108;DHT22;13090;53.422;7.670;2023-05-10T19:24:39;17.50;80.20
25108;DHT22;13090;53.422;7.670;2023-05-10T19:29:41;17.30;80.30
25108;DHT22;13090;53.422;7.670;2023-05-10T19:34:45;17.20;80.40
25108;DHT22;13090;53.422;7.670;2023-05-10T19:39:47;17.10;80.50
25108;DHT22;13090;53.422;7.670;2023-05-10T19:44:49;16.90;80.70
25108;DHT22;13090;53.422;7.670;2023-05-10T19:49:53;16.80;81.10
25108;DHT22;13090;53.422;7.670;2023-05-10T19:54:55;16.70;81.20
25108;DHT22;13090;53.422;7.670;2023-05-10T19:59:57;16.50;81.20
25108;DHT22;13090;53.422;7.670;2023-05-10T20:05:01;16.40;81.50
25108;DHT22;13090;53.422;7.670;2023-05-10T20:10:04;16.30;81.60
25108;DHT22;13090;53.422;7.670;2023-05-10T20:15:07;16.20;81.80
25108;DHT22;13090;53.422;7.670;2023-05-10T20:20:12;16.10;82.00
25108;DHT22;13090;53.422;7.670;2023-05-10T20:25:15;16.00;82.30
25108;DHT22;13090;53.422;7.670;2023-05-10T20:30:17;16.00;82.70
25108;DHT22;13090;53.422;7.670;2023-05-10T20:35:22;16.00;83.00
25108;DHT22;13090;53.422;7.670;2023-05-10T20:40:24;16.00;83.30
25108;DHT22;13090;53.422;7.670;2023-05-10T20:45:26;16.10;83.40
25108;DHT22;13090;53.422;7.670;2023-05-10T20:50:30;16.10;83.40
25108;DHT22;13090;53.422;7.670;2023-05-10T20:55:32;16.20;83.40
25108;DHT22;13090;53.422;7.670;2023-05-10T21:00:35;16.20;83.40
25108;DHT22;13090;53.422;7.670;2023-05-10T21:05:38;16.20;83.30
25108;DHT22;13090;53.422;7.670;2023-05-10T21:10:41;16.20;83.40
25108;DHT22;13090;53.422;7.670;2023-05-10T21:15:43;16.30;83.30
25108;DHT22;13090;53.422;7.670;2023-05-10T21:20:46;16.30;83.30
25108;DHT22;13090;53.422;7.670;2023-05-10T21:25:49;16.20;83.20
25108;DHT22;13090;53.422;7.670;2023-05-10T21:30:51;16.30;83.20
25108;DHT22;13090;53.422;7.670;2023-05-10T21:35:55;16.20;83.20
25108;DHT22;13090;53.422;7.670;2023-05-10T21:40:57;16.20;83.10
25108;DHT22;13090;53.422;7.670;2023-05-10T21:45:59;16.20;83.10
25108;DHT22;13090;53.422;7.670;2023-05-10T21:51:03;16.20;83.10
25108;DHT22;13090;53.422;7.670;2023-05-10T21:56:06;16.20;83.20
25108;DHT22;13090;53.422;7.670;2023-05-10T22:01:08;16.20;83.20
25108;DHT22;13090;53.422;7.670;2023-05-10T22:06:12;16.20;83.20
25108;DHT22;13090;53.422;7.670;2023-05-10T22:11:14;16.10;83.20
25108;DHT22;13090;53.422;7.670;2023-05-10T22:16:16;16.10;83.10
25108;DHT22;13090;53.422;7.670;2023-05-10T22:21:20;16.10;83.20
25108;DHT22;13090;53.422;7.670;2023-05-10T22:26:22;16.10;83.20
25108;DHT22;13090;53.422;7.670;2023-05-10T22:31:25;16.00;83.20
25108;DHT22;13090;53.422;7.670;2023-05-10T22:36:29;16.00;83.40
25108;DHT22;13090;53.422;7.670;2023-05-10T22:41:32;15.90;83.30
25108;DHT22;13090;53.422;7.670;2023-05-10T22:46:34;15.90;83.30
25108;DHT22;13090;53.422;7.670;2023-05-10T22:51:38;15.90;83.40
25108;DHT22;13090;53.422;7.670;2023-05-10T22:56:40;15.90;83.30
25108;DHT22;13090;53.422;7.670;2023-05-10T23:01:43;15.80;83.30
25108;DHT22;13090;53.422;7.670;2023-05-10T23:06:46;15.80;83.40
25108;DHT22;13090;53.422;7.670;2023-05-10T23:11:48;15.70;83.60
25108;DHT22;13090;53.422;7.670;2023-05-10T23:16:51;15.60;83.60
25108;DHT22;13090;53.422;7.670;2023-05-10T23:21:54;15.60;83.80
25108;DHT22;13090;53.422;7.670;2023-05-10T23:26:56;15.60;84.00
25108;DHT22;13090;53.422;7.670;2023-05-10T23:31:59;15.60;84.00
25108;DHT22;13090;53.422;7.670;2023-05-10T23:37:04;15.60;83.90
25108;DHT22;13090;53.422;7.670;2023-05-10T23:42:06;15.60;84.20
25108;DHT22;13090;53.422;7.670;2023-05-10T23:47:08;15.60;84.30
25108;DHT22;13090;53.422;7.670;2023-05-10T23:52:12;15.50;85.10
25108;DHT22;13090;53.422;7.670;2023-05-10T23:57:14;15.50;84.10
